sensor_id;sensor_type;location;lat;lon;timestamp;temperature;humidity
39023;DHT22;25908;51.984;5.928;2023-06-14T00:00:31;21.40;48.70
39023;DHT22;25908;51.984;5.928;2023-06-14T00:02:56;21.40;48.90
39023;DHT22;25908;51.984;5.928;2023-06-14T00:05:23;21.30;49.10
39023;DHT22;25908;51.984;5.928;2023-06-14T00:07:49;21.20;49.10
39023;DHT22;25908;51.984;5.928;2023-06-14T00:10:19;21.20;49.30
39023;DHT22;25908;51.984;5.928;2023-06-14T00:12:44;21.10;49.40
39023;DHT22;25908;51.984;5.928;2023-06-14T00:15:10;21.10;49.50
39023;DHT22;25908;51.984;5.928;2023-06-14T00:17:36;21.10;49.70
39023;DHT22;25908;51.984;5.928;2023-06-14T00:20:03;21.00;49.70
39023;DHT22;25908;51.984;5.928;2023-06-14T00:22:32;21.00;49.90
39023;DHT22;25908;51.984;5.928;2023-06-14T00:24:58;21.00;50.00
39023;DHT22;25908;51.984;5.928;2023-06-14T00:27:24;21.00;50.10
39023;DHT22;25908;51.984;5.928;2023-06-14T00:29:50;21.00;50.20
39023;DHT22;25908;51.984;5.928;2023-06-14T00:32:15;21.00;50.40
39023;DHT22;25908;51.984;5.928;2023-06-14T00:34:41;20.90;50.40
39023;DHT22;25908;51.984;5.928;2023-06-14T00:37:07;20.90;50.50
39023;DHT22;25908;51.984;5.928;2023-06-14T00:39:32;20.90;50.70
39023;DHT22;25908;51.984;5.928;2023-06-14T00:41:58;20.90;50.70
39023;DHT22;25908;51.984;5.928;2023-06-14T00:44:24;20.80;50.80
39023;DHT22;25908;51.984;5.928;2023-06-14T00:46:50;20.80;50.90
39023;DHT22;25908;51.984;5.928;2023-06-14T00:49:17;20.70;50.80
39023;DHT22;25908;51.984;5.928;2023-06-14T00:51:43;20.80;50.90
39023;DHT22;25908;51.984;5.928;2023-06-14T00:54:09;20.90;51.10
39023;DHT22;25908;51.984;5.928;2023-06-14T00:56:36;20.80;51.70
39023;DHT22;25908;51.984;5.928;2023-06-14T00:59:03;20.80;51.10
39023;DHT22;25908;51.984;5.928;2023-06-14T01:01:29;20.80;51.20
39023;DHT22;25908;51.984;5.928;2023-06-14T01:03:58;20.80;51.20
39023;DHT22;25908;51.984;5.928;2023-06-14T01:06:45;20.70;51.20
39023;DHT22;25908;51.984;5.928;2023-06-14T01:09:41;20.70;51.30
39023;DHT22;25908;51.984;5.928;2023-06-14T01:12:24;20.70;51.30
39023;DHT22;25908;51.984;5.928;2023-06-14T01:14:54;20.60;51.40
39023;DHT22;25908;51.984;5.928;2023-06-14T01:17:21;20.70;51.50
39023;DHT22;25908;51.984;5.928;2023-06-14T01:19:48;20.70;51.60
39023;DHT22;25908;51.984;5.928;2023-06-14T01:22:14;20.60;51.60
39023;DHT22;25908;51.984;5.928;2023-06-14T01:24:40;20.60;51.70
39023;DHT22;25908;51.984;5.928;2023-06-14T01:27:10;20.60;51.70
39023;DHT22;25908;51.984;5.928;2023-06-14T01:29:37;20.60;51.80
39023;DHT22;25908;51.984;5.928;2023-06-14T01:32:04;20.60;51.80
39023;DHT22;25908;51.984;5.928;2023-06-14T01:34:31;20.60;51.90
39023;DHT22;25908;51.984;5.928;2023-06-14T01:36:57;20.50;51.90
39023;DHT22;25908;51.984;5.928;2023-06-14T01:39:24;20.50;52.70
39023;DHT22;25908;51.984;5.928;2023-06-14T01:41:50;20.50;52.10
39023;DHT22;25908;51.984;5.928;2023-06-14T01:44:17;20.50;52.20
39023;DHT22;25908;51.984;5.928;2023-06-14T01:46:45;20.50;52.20
39023;DHT22;25908;51.984;5.928;2023-06-14T01:49:11;20.40;52.30
39023;DHT22;25908;51.984;5.928;2023-06-14T01:51:36;20.40;52.30
39023;DHT22;25908;51.984;5.928;2023-06-14T01:54:02;20.40;52.40
39023;DHT22;25908;51.984;5.928;2023-06-14T01:56:28;20.40;52.50
39023;DHT22;25908;51.984;5.928;2023-06-14T01:58:53;20.30;52.50
39023;DHT22;25908;51.984;5.928;2023-06-14T02:01:19;20.40;52.60
39023;DHT22;25908;51.984;5.928;2023-06-14T02:03:46;20.30;52.60
39023;DHT22;25908;51.984;5.928;2023-06-14T02:06:12;20.40;52.70
39023;DHT22;25908;51.984;5.928;2023-06-14T02:08:39;20.30;52.70
39023;DHT22;25908;51.984;5.928;2023-06-14T02:11:05;20.30;52.80
39023;DHT22;25908;51.984;5.928;2023-06-14T02:13:31;20.20;52.90
39023;DHT22;25908;51.984;5.928;2023-06-14T02:15:56;20.20;53.00
39023;DHT22;25908;51.984;5.928;2023-06-14T02:18:23;20.10;53.00
39023;DHT22;25908;51.984;5.928;2023-06-14T02:20:48;20.10;53.00
39023;DHT22;25908;51.984;5.928;2023-06-14T02:23:14;20.10;53.20
39023;DHT22;25908;51.984;5.928;2023-06-14T02:25:40;20.10;53.30
39023;DHT22;25908;51.984;5.928;2023-06-14T02:28:05;20.10;53.40
39023;DHT22;25908;51.984;5.928;2023-06-14T02:30:31;20.00;53.40
39023;DHT22;25908;51.984;5.928;2023-06-14T02:32:56;20.10;53.50
39023;DHT22;25908;51.984;5.928;2023-06-14T02:35:22;20.00;53.50
39023;DHT22;25908;51.984;5.928;2023-06-14T02:37:52;20.00;53.50
39023;DHT22;25908;51.984;5.928;2023-06-14T02:40:18;20.00;53.60
39023;DHT22;25908;51.984;5.928;2023-06-14T02:42:43;20.00;53.60
39023;DHT22;25908;51.984;5.928;2023-06-14T02:45:09;19.90;53.60
39023;DHT22;25908;51.984;5.928;2023-06-14T02:47:35;19.90;53.70
39023;DHT22;25908;51.984;5.928;2023-06-14T02:50:00;19.90;53.70
39023;DHT22;25908;51.984;5.928;2023-06-14T02:52:26;19.90;53.80
39023;DHT22;25908;51.984;5.928;2023-06-14T02:54:52;19.90;53.90
39023;DHT22;25908;51.984;5.928;2023-06-14T02:57:17;19.90;54.00
39023;DHT22;25908;51.984;5.928;2023-06-14T02:59:43;19.80;54.10
39023;DHT22;25908;51.984;5.928;2023-06-14T03:02:08;19.80;54.20
39023;DHT22;25908;51.984;5.928;2023-06-14T03:04:34;19.80;54.30
39023;DHT22;25908;51.984;5.928;2023-06-14T03:07:02;19.90;54.40
39023;DHT22;25908;51.984;5.928;2023-06-14T03:09:35;19.80;54.40
39023;DHT22;25908;51.984;5.928;2023-06-14T03:12:01;19.80;54.50
39023;DHT22;25908;51.984;5.928;2023-06-14T03:14:26;19.70;54.60
39023;DHT22;25908;51.984;5.928;2023-06-14T03:16:52;19.70;54.70
39023;DHT22;25908;51.984;5.928;2023-06-14T03:19:22;19.70;54.80
39023;DHT22;25908;51.984;5.928;2023-06-14T03:21:48;19.70;54.80
39023;DHT22;25908;51.984;5.928;2023-06-14T03:24:14;19.70;54.90
39023;DHT22;25908;51.984;5.928;2023-06-14T03:26:41;19.60;55.10
39023;DHT22;25908;51.984;5.928;2023-06-14T03:29:07;19.60;55.10
39023;DHT22;25908;51.984;5.928;2023-06-14T03:31:34;19.50;55.30
39023;DHT22;25908;51.984;5.928;2023-06-14T03:34:01;19.50;55.40
39023;DHT22;25908;51.984;5.928;2023-06-14T03:36:26;19.50;55.60
39023;DHT22;25908;51.984;5.928;2023-06-14T03:38:53;19.40;55.70
39023;DHT22;25908;51.984;5.928;2023-06-14T03:41:19;19.50;55.80
39023;DHT22;25908;51.984;5.928;2023-06-14T03:43:44;19.40;55.80
39023;DHT22;25908;51.984;5.928;2023-06-14T03:46:10;19.40;55.90
39023;DHT22;25908;51.984;5.928;2023-06-14T03:48:35;19.40;56.10
39023;DHT22;25908;51.984;5.928;2023-06-14T03:51:01;19.40;56.10
39023;DHT22;25908;51.984;5.928;2023-06-14T03:53:27;19.40;56.20
39023;DHT22;25908;51.984;5.928;2023-06-14T03:55:55;19.40;56.20
39023;DHT22;25908;51.984;5.928;2023-06-14T03:58:20;19.40;56.30
39023;DHT22;25908;51.984;5.928;2023-06-14T04:00:46;19.30;56.30
39023;DHT22;25908;51.984;5.928;2023-06-14T04:03:12;19.30;56.40
39023;DHT22;25908;51.984;5.928;2023-06-14T04:05:39;19.30;56.50
39023;DHT22;25908;51.984;5.928;2023-06-14T04:08:07;19.30;56.70
39023;DHT22;25908;51.984;5.928;2023-06-14T04:10:34;19.30;56.80
39023;DHT22;25908;51.984;5.928;2023-06-14T04:13:00;19.20;56.80
39023;DHT22;25908;51.984;5.928;2023-06-14T04:15:25;19.20;56.90
39023;DHT22;25908;51.984;5.928;2023-06-14T04:17:53;19.10;56.90
39023;DHT22;25908;51.984;5.928;2023-06-14T04:20:22;19.20;57.20
39023;DHT22;25908;51.984;5.928;2023-06-14T04:22:49;19.20;57.30
39023;DHT22;25908;51.984;5.928;2023-06-14T04:25:15;19.10;57.40
39023;DHT22;25908;51.984;5.928;2023-06-14T04:27:40;19.20;57.50
39023;DHT22;25908;51.984;5.928;2023-06-14T04:30:07;19.10;57.60
39023;DHT22;25908;51.984;5.928;2023-06-14T04:32:33;19.10;57.90
39023;DHT22;25908;51.984;5.928;2023-06-14T04:35:06;19.20;58.20
39023;DHT22;25908;51.984;5.928;2023-06-14T04:37:32;19.30;58.40
39023;DHT22;25908;51.984;5.928;2023-06-14T04:39:58;19.50;58.60
39023;DHT22;25908;51.984;5.928;2023-06-14T04:42:24;19.60;58.40
39023;DHT22;25908;51.984;5.928;2023-06-14T04:44:56;19.70;58.50
39023;DHT22;25908;51.984;5.928;2023-06-14T04:47:22;19.70;58.40
39023;DHT22;25908;51.984;5.928;2023-06-14T04:49:50;19.80;58.30
39023;DHT22;25908;51.984;5.928;2023-06-14T04:52:19;19.90;57.90
39023;DHT22;25908;51.984;5.928;2023-06-14T04:54:46;19.90;57.70
39023;DHT22;25908;51.984;5.928;2023-06-14T04:57:12;19.90;57.60
39023;DHT22;25908;51.984;5.928;2023-06-14T04:59:39;20.00;57.60
39023;DHT22;25908;51.984;5.928;2023-06-14T05:02:05;19.90;57.50
39023;DHT22;25908;51.984;5.928;2023-06-14T05:04:32;19.90;57.60
39023;DHT22;25908;51.984;5.928;2023-06-14T05:06:58;19.90;57.50
39023;DHT22;25908;51.984;5.928;2023-06-14T05:09:23;19.90;57.60
39023;DHT22;25908;51.984;5.928;2023-06-14T05:11:49;20.00;57.60
39023;DHT22;25908;51.984;5.928;2023-06-14T05:14:16;20.00;57.80
39023;DHT22;25908;51.984;5.928;2023-06-14T05:16:41;20.10;57.80
39023;DHT22;25908;51.984;5.928;2023-06-14T05:19:08;20.10;57.60
39023;DHT22;25908;51.984;5.928;2023-06-14T05:21:34;20.10;57.50
39023;DHT22;25908;51.984;5.928;2023-06-14T05:24:00;20.10;57.40
39023;DHT22;25908;51.984;5.928;2023-06-14T05:26:25;20.20;57.20
39023;DHT22;25908;51.984;5.928;2023-06-14T05:28:54;20.30;57.10
39023;DHT22;25908;51.984;5.928;2023-06-14T05:31:24;20.40;57.00
39023;DHT22;25908;51.984;5.928;2023-06-14T05:33:51;20.50;56.80
39023;DHT22;25908;51.984;5.928;2023-06-14T05:36:17;20.70;56.60
39023;DHT22;25908;51.984;5.928;2023-06-14T05:38:43;20.70;56.30
39023;DHT22;25908;51.984;5.928;2023-06-14T05:41:08;20.90;56.10
39023;DHT22;25908;51.984;5.928;2023-06-14T05:43:34;21.00;55.90
39023;DHT22;25908;51.984;5.928;2023-06-14T05:46:00;21.10;55.70
39023;DHT22;25908;51.984;5.928;2023-06-14T05:48:25;21.30;55.50
39023;DHT22;25908;51.984;5.928;2023-06-14T05:50:51;21.30;55.10
39023;DHT22;25908;51.984;5.928;2023-06-14T05:53:16;21.50;55.00
39023;DHT22;25908;51.984;5.928;2023-06-14T05:55:42;21.60;54.80
39023;DHT22;25908;51.984;5.928;2023-06-14T05:58:08;21.70;54.70
39023;DHT22;25908;51.984;5.928;2023-06-14T06:00:33;21.80;54.50
39023;DHT22;25908;51.984;5.928;2023-06-14T06:02:59;22.00;54.30
39023;DHT22;25908;51.984;5.928;2023-06-14T06:05:24;22.10;54.20
39023;DHT22;25908;51.984;5.928;2023-06-14T06:07:50;22.40;53.80
39023;DHT22;25908;51.984;5.928;2023-06-14T06:10:16;22.60;53.60
39023;DHT22;25908;51.984;5.928;2023-06-14T06:12:42;22.80;53.30
39023;DHT22;25908;51.984;5.928;2023-06-14T06:15:07;23.00;53.70
39023;DHT22;25908;51.984;5.928;2023-06-14T06:17:37;23.10;52.70
39023;DHT22;25908;51.984;5.928;2023-06-14T06:20:03;23.20;52.20
39023;DHT22;25908;51.984;5.928;2023-06-14T06:22:30;23.20;52.10
39023;DHT22;25908;51.984;5.928;2023-06-14T06:24:56;23.40;52.30
39023;DHT22;25908;51.984;5.928;2023-06-14T06:27:22;23.50;52.10
39023;DHT22;25908;51.984;5.928;2023-06-14T06:29:47;23.60;51.90
39023;DHT22;25908;51.984;5.928;2023-06-14T06:32:14;23.70;51.40
39023;DHT22;25908;51.984;5.928;2023-06-14T06:34:40;23.90;51.30
39023;DHT22;25908;51.984;5.928;2023-06-14T06:37:05;24.00;51.30
39023;DHT22;25908;51.984;5.928;2023-06-14T06:39:31;24.20;51.10
39023;DHT22;25908;51.984;5.928;2023-06-14T06:41:57;24.40;50.70
39023;DHT22;25908;51.984;5.928;2023-06-14T06:44:22;24.50;51.00
39023;DHT22;25908;51.984;5.928;2023-06-14T06:46:48;24.70;51.10
39023;DHT22;25908;51.984;5.928;2023-06-14T06:49:13;24.90;50.20
39023;DHT22;25908;51.984;5.928;2023-06-14T06:51:41;25.00;49.60
39023;DHT22;25908;51.984;5.928;2023-06-14T06:54:08;25.10;49.40
39023;DHT22;25908;51.984;5.928;2023-06-14T06:56:34;25.40;49.40
39023;DHT22;25908;51.984;5.928;2023-06-14T06:59:00;25.40;48.60
39023;DHT22;25908;51.984;5.928;2023-06-14T07:01:26;25.50;48.40
39023;DHT22;25908;51.984;5.928;2023-06-14T07:03:57;25.50;48.10
39023;DHT22;25908;51.984;5.928;2023-06-14T07:06:22;25.60;48.30
39023;DHT22;25908;51.984;5.928;2023-06-14T07:08:52;25.80;48.20
39023;DHT22;25908;51.984;5.928;2023-06-14T07:11:18;25.90;48.00
39023;DHT22;25908;51.984;5.928;2023-06-14T07:13:43;26.10;48.00
39023;DHT22;25908;51.984;5.928;2023-06-14T07:16:09;26.10;47.70
39023;DHT22;25908;51.984;5.928;2023-06-14T07:18:34;26.20;47.50
39023;DHT22;25908;51.984;5.928;2023-06-14T07:21:02;26.30;47.30
39023;DHT22;25908;51.984;5.928;2023-06-14T07:23:28;26.50;47.20
39023;DHT22;25908;51.984;5.928;2023-06-14T07:25:54;26.60;47.00
39023;DHT22;25908;51.984;5.928;2023-06-14T07:28:19;26.80;47.00
39023;DHT22;25908;51.984;5.928;2023-06-14T07:30:45;27.10;46.90
39023;DHT22;25908;51.984;5.928;2023-06-14T07:33:11;27.40;46.50
39023;DHT22;25908;51.984;5.928;2023-06-14T07:35:37;27.60;45.80
39023;DHT22;25908;51.984;5.928;2023-06-14T07:38:03;27.70;45.70
39023;DHT22;25908;51.984;5.928;2023-06-14T07:40:28;27.90;45.50
39023;DHT22;25908;51.984;5.928;2023-06-14T07:42:54;28.10;45.30
39023;DHT22;25908;51.984;5.928;2023-06-14T07:45:20;28.30;44.70
39023;DHT22;25908;51.984;5.928;2023-06-14T07:47:46;28.40;44.20
39023;DHT22;25908;51.984;5.928;2023-06-14T07:50:12;28.30;43.60
39023;DHT22;25908;51.984;5.928;2023-06-14T07:52:39;28.20;43.60
39023;DHT22;25908;51.984;5.928;2023-06-14T07:55:05;28.20;43.70
39023;DHT22;25908;51.984;5.928;2023-06-14T07:57:30;28.20;43.80
39023;DHT22;25908;51.984;5.928;2023-06-14T07:59:56;28.20;43.70
39023;DHT22;25908;51.984;5.928;2023-06-14T08:02:22;28.30;43.70
39023;DHT22;25908;51.984;5.928;2023-06-14T08:04:47;28.40;43.80
39023;DHT22;25908;51.984;5.928;2023-06-14T08:07:14;28.50;43.10
39023;DHT22;25908;51.984;5.928;2023-06-14T08:09:39;28.60;42.80
39023;DHT22;25908;51.984;5.928;2023-06-14T08:12:06;28.60;42.70
39023;DHT22;25908;51.984;5.928;2023-06-14T08:14:39;28.70;42.80
39023;DHT22;25908;51.984;5.928;2023-06-14T08:17:04;28.70;42.60
39023;DHT22;25908;51.984;5.928;2023-06-14T08:19:30;28.90;42.40
39023;DHT22;25908;51.984;5.928;2023-06-14T08:21:56;28.90;42.20
39023;DHT22;25908;51.984;5.928;2023-06-14T08:24:22;28.90;42.20
39023;DHT22;25908;51.984;5.928;2023-06-14T08:26:52;29.10;42.30
39023;DHT22;25908;51.984;5.928;2023-06-14T08:29:18;29.20;42.10
39023;DHT22;25908;51.984;5.928;2023-06-14T08:31:44;29.30;41.50
39023;DHT22;25908;51.984;5.928;2023-06-14T08:34:10;29.30;41.10
39023;DHT22;25908;51.984;5.928;2023-06-14T08:36:35;29.20;41.10
39023;DHT22;25908;51.984;5.928;2023-06-14T08:39:01;29.20;41.20
39023;DHT22;25908;51.984;5.928;2023-06-14T08:41:28;29.10;41.10
39023;DHT22;25908;51.984;5.928;2023-06-14T08:43:55;28.90;41.50
39023;DHT22;25908;51.984;5.928;2023-06-14T08:46:21;28.80;41.70
39023;DHT22;25908;51.984;5.928;2023-06-14T08:48:51;28.90;42.00
39023;DHT22;25908;51.984;5.928;2023-06-14T08:51:21;28.90;41.50
39023;DHT22;25908;51.984;5.928;2023-06-14T08:53:50;29.00;41.70
39023;DHT22;25908;51.984;5.928;2023-06-14T08:56:17;29.10;40.80
39023;DHT22;25908;51.984;5.928;2023-06-14T08:58:44;29.20;40.90
39023;DHT22;25908;51.984;5.928;2023-06-14T09:01:11;29.30;41.00
39023;DHT22;25908;51.984;5.928;2023-06-14T09:03:40;29.40;40.90
39023;DHT22;25908;51.984;5.928;2023-06-14T09:06:07;29.40;41.00
39023;DHT22;25908;51.984;5.928;2023-06-14T09:08:34;29.30;40.90
39023;DHT22;25908;51.984;5.928;2023-06-14T09:11:01;29.30;40.90
39023;DHT22;25908;51.984;5.928;2023-06-14T09:13:27;29.30;41.00
39023;DHT22;25908;51.984;5.928;2023-06-14T09:15:53;29.30;41.00
39023;DHT22;25908;51.984;5.928;2023-06-14T09:18:19;29.40;40.50
39023;DHT22;25908;51.984;5.928;2023-06-14T09:20:48;29.40;40.10
39023;DHT22;25908;51.984;5.928;2023-06-14T09:23:13;29.40;40.10
39023;DHT22;25908;51.984;5.928;2023-06-14T09:25:46;29.40;40.00
39023;DHT22;25908;51.984;5.928;2023-06-14T09:28:11;29.30;40.30
39023;DHT22;25908;51.984;5.928;2023-06-14T09:30:38;29.30;40.70
39023;DHT22;25908;51.984;5.928;2023-06-14T09:33:03;29.30;40.80
39023;DHT22;25908;51.984;5.928;2023-06-14T09:35:31;29.30;41.00
39023;DHT22;25908;51.984;5.928;2023-06-14T09:37:57;29.40;41.20
39023;DHT22;25908;51.984;5.928;2023-06-14T09:40:23;29.60;41.50
39023;DHT22;25908;51.984;5.928;2023-06-14T09:42:49;29.60;41.40
39023;DHT22;25908;51.984;5.928;2023-06-14T09:45:15;29.70;41.20
39023;DHT22;25908;51.984;5.928;2023-06-14T09:47:45;29.60;40.80
39023;DHT22;25908;51.984;5.928;2023-06-14T09:50:11;29.50;41.00
39023;DHT22;25908;51.984;5.928;2023-06-14T09:52:37;29.40;41.10
39023;DHT22;25908;51.984;5.928;2023-06-14T09:55:11;29.30;41.10
39023;DHT22;25908;51.984;5.928;2023-06-14T09:57:40;29.30;40.80
39023;DHT22;25908;51.984;5.928;2023-06-14T10:00:07;29.30;40.50
39023;DHT22;25908;51.984;5.928;2023-06-14T10:02:36;29.30;40.00
39023;DHT22;25908;51.984;5.928;2023-06-14T10:05:09;29.20;39.80
39023;DHT22;25908;51.984;5.928;2023-06-14T10:10:07;29.30;40.00
39023;DHT22;25908;51.984;5.928;2023-06-14T10:12:32;29.20;39.70
39023;DHT22;25908;51.984;5.928;2023-06-14T10:14:59;29.00;39.80
39023;DHT22;25908;51.984;5.928;2023-06-14T10:17:48;28.90;40.00
39023;DHT22;25908;51.984;5.928;2023-06-14T10:20:35;28.70;40.40
39023;DHT22;25908;51.984;5.928;2023-06-14T10:23:23;28.60;40.40
39023;DHT22;25908;51.984;5.928;2023-06-14T10:25:58;28.60;40.70
39023;DHT22;25908;51.984;5.928;2023-06-14T10:28:25;28.60;40.60
39023;DHT22;25908;51.984;5.928;2023-06-14T10:31:18;28.70;40.60
39023;DHT22;25908;51.984;5.928;2023-06-14T10:33:56;28.80;40.50
39023;DHT22;25908;51.984;5.928;2023-06-14T10:39:06;28.80;40.40
39023;DHT22;25908;51.984;5.928;2023-06-14T10:41:40;28.80;40.50
39023;DHT22;25908;51.984;5.928;2023-06-14T10:46:47;28.50;40.40
39023;DHT22;25908;51.984;5.928;2023-06-14T10:49:16;28.50;40.20
39023;DHT22;25908;51.984;5.928;2023-06-14T10:51:50;28.40;40.00
39023;DHT22;25908;51.984;5.928;2023-06-14T10:54:16;28.40;40.20
39023;DHT22;25908;51.984;5.928;2023-06-14T10:56:49;28.50;40.30
39023;DHT22;25908;51.984;5.928;2023-06-14T10:59:16;28.50;39.80
39023;DHT22;25908;51.984;5.928;2023-06-14T11:01:58;28.40;40.10
39023;DHT22;25908;51.984;5.928;2023-06-14T11:04:46;28.30;40.00
39023;DHT22;25908;51.984;5.928;2023-06-14T11:10:38;28.20;39.90
39023;DHT22;25908;51.984;5.928;2023-06-14T11:13:05;28.10;40.10
39023;DHT22;25908;51.984;5.928;2023-06-14T11:15:31;28.00;40.30
39023;DHT22;25908;51.984;5.928;2023-06-14T11:18:00;28.10;40.60
39023;DHT22;25908;51.984;5.928;2023-06-14T11:20:27;28.10;40.60
39023;DHT22;25908;51.984;5.928;2023-06-14T11:22:53;28.00;40.50
39023;DHT22;25908;51.984;5.928;2023-06-14T11:25:19;28.00;40.40
39023;DHT22;25908;51.984;5.928;2023-06-14T11:27:45;27.90;40.20
39023;DHT22;25908;51.984;5.928;2023-06-14T11:30:12;27.90;40.30
39023;DHT22;25908;51.984;5.928;2023-06-14T11:32:38;27.80;40.50
39023;DHT22;25908;51.984;5.928;2023-06-14T11:35:04;27.80;40.50
39023;DHT22;25908;51.984;5.928;2023-06-14T11:37:31;27.70;40.50
39023;DHT22;25908;51.984;5.928;2023-06-14T11:40:00;27.70;40.70
39023;DHT22;25908;51.984;5.928;2023-06-14T11:42:29;27.60;41.10
39023;DHT22;25908;51.984;5.928;2023-06-14T11:44:55;27.70;41.30
39023;DHT22;25908;51.984;5.928;2023-06-14T11:47:21;27.60;41.40
39023;DHT22;25908;51.984;5.928;2023-06-14T11:49:47;27.60;41.50
39023;DHT22;25908;51.984;5.928;2023-06-14T11:52:13;27.60;41.60
39023;DHT22;25908;51.984;5.928;2023-06-14T11:54:40;27.60;41.60
39023;DHT22;25908;51.984;5.928;2023-06-14T11:57:06;27.60;41.60
39023;DHT22;25908;51.984;5.928;2023-06-14T11:59:41;27.50;41.50
39023;DHT22;25908;51.984;5.928;2023-06-14T12:02:09;27.40;41.60
39023;DHT22;25908;51.984;5.928;2023-06-14T12:04:35;27.30;41.80
39023;DHT22;25908;51.984;5.928;2023-06-14T12:07:11;27.30;41.90
39023;DHT22;25908;51.984;5.928;2023-06-14T12:09:41;27.30;42.00
39023;DHT22;25908;51.984;5.928;2023-06-14T12:12:09;27.20;41.90
39023;DHT22;25908;51.984;5.928;2023-06-14T12:14:36;27.20;41.80
39023;DHT22;25908;51.984;5.928;2023-06-14T12:17:06;27.00;41.50
39023;DHT22;25908;51.984;5.928;2023-06-14T12:19:42;26.90;41.70
39023;DHT22;25908;51.984;5.928;2023-06-14T12:22:14;27.00;42.30
39023;DHT22;25908;51.984;5.928;2023-06-14T12:24:43;26.90;42.40
39023;DHT22;25908;51.984;5.928;2023-06-14T12:27:09;26.80;42.60
39023;DHT22;25908;51.984;5.928;2023-06-14T12:29:37;26.80;42.70
39023;DHT22;25908;51.984;5.928;2023-06-14T12:32:02;26.70;42.90
39023;DHT22;25908;51.984;5.928;2023-06-14T12:34:28;26.60;43.10
39023;DHT22;25908;51.984;5.928;2023-06-14T12:36:54;26.60;43.20
39023;DHT22;25908;51.984;5.928;2023-06-14T12:39:20;26.50;43.40
39023;DHT22;25908;51.984;5.928;2023-06-14T12:41:46;26.50;43.60
39023;DHT22;25908;51.984;5.928;2023-06-14T12:44:12;26.50;43.70
39023;DHT22;25908;51.984;5.928;2023-06-14T12:46:39;26.60;43.70
39023;DHT22;25908;51.984;5.928;2023-06-14T12:49:09;26.60;43.70
39023;DHT22;25908;51.984;5.928;2023-06-14T12:51:35;26.50;43.90
39023;DHT22;25908;51.984;5.928;2023-06-14T12:54:00;26.50;44.00
39023;DHT22;25908;51.984;5.928;2023-06-14T12:56:26;26.40;43.70
39023;DHT22;25908;51.984;5.928;2023-06-14T12:58:52;26.40;43.80
39023;DHT22;25908;51.984;5.928;2023-06-14T13:01:18;26.40;44.00
39023;DHT22;25908;51.984;5.928;2023-06-14T13:03:44;26.30;44.20
39023;DHT22;25908;51.984;5.928;2023-06-14T13:06:09;26.20;44.30
39023;DHT22;25908;51.984;5.928;2023-06-14T13:08:35;26.20;44.30
39023;DHT22;25908;51.984;5.928;2023-06-14T13:11:00;26.20;44.20
39023;DHT22;25908;51.984;5.928;2023-06-14T13:13:26;26.20;44.20
39023;DHT22;25908;51.984;5.928;2023-06-14T13:15:52;26.20;44.10
39023;DHT22;25908;51.984;5.928;2023-06-14T13:18:17;26.10;44.20
39023;DHT22;25908;51.984;5.928;2023-06-14T13:20:43;26.10;44.40
39023;DHT22;25908;51.984;5.928;2023-06-14T13:23:09;26.10;44.30
39023;DHT22;25908;51.984;5.928;2023-06-14T13:25:35;26.00;44.20
39023;DHT22;25908;51.984;5.928;2023-06-14T13:28:02;25.90;44.20
39023;DHT22;25908;51.984;5.928;2023-06-14T13:30:27;25.90;44.30
39023;DHT22;25908;51.984;5.928;2023-06-14T13:32:53;25.90;44.30
39023;DHT22;25908;51.984;5.928;2023-06-14T13:35:19;25.90;43.90
39023;DHT22;25908;51.984;5.928;2023-06-14T13:37:45;25.80;43.80
39023;DHT22;25908;51.984;5.928;2023-06-14T13:40:11;25.80;43.80
39023;DHT22;25908;51.984;5.928;2023-06-14T13:42:37;25.80;44.00
39023;DHT22;25908;51.984;5.928;2023-06-14T13:45:03;25.70;44.20
39023;DHT22;25908;51.984;5.928;2023-06-14T13:47:29;25.70;44.50
39023;DHT22;25908;51.984;5.928;2023-06-14T13:49:55;25.70;45.00
39023;DHT22;25908;51.984;5.928;2023-06-14T13:52:21;25.60;45.00
39023;DHT22;25908;51.984;5.928;2023-06-14T13:54:46;25.60;44.80
39023;DHT22;25908;51.984;5.928;2023-06-14T13:57:12;25.60;44.90
39023;DHT22;25908;51.984;5.928;2023-06-14T13:59:38;25.60;44.70
39023;DHT22;25908;51.984;5.928;2023-06-14T14:02:05;25.60;44.50
39023;DHT22;25908;51.984;5.928;2023-06-14T14:04:31;25.60;44.30
39023;DHT22;25908;51.984;5.928;2023-06-14T14:06:57;25.60;44.20
39023;DHT22;25908;51.984;5.928;2023-06-14T14:09:22;25.60;44.50
39023;DHT22;25908;51.984;5.928;2023-06-14T14:11:48;25.60;44.70
39023;DHT22;25908;51.984;5.928;2023-06-14T14:14:14;25.60;44.80
39023;DHT22;25908;51.984;5.928;2023-06-14T14:16:40;25.60;44.80
39023;DHT22;25908;51.984;5.928;2023-06-14T14:19:05;25.60;44.90
39023;DHT22;25908;51.984;5.928;2023-06-14T14:21:32;25.60;45.00
39023;DHT22;25908;51.984;5.928;2023-06-14T14:23:57;25.50;44.80
39023;DHT22;25908;51.984;5.928;2023-06-14T14:26:23;25.50;44.50
39023;DHT22;25908;51.984;5.928;2023-06-14T14:28:50;25.60;43.70
39023;DHT22;25908;51.984;5.928;2023-06-14T14:31:16;25.50;43.30
39023;DHT22;25908;51.984;5.928;2023-06-14T14:33:42;25.50;43.20
39023;DHT22;25908;51.984;5.928;2023-06-14T14:36:07;25.40;43.30
39023;DHT22;25908;51.984;5.928;2023-06-14T14:38:33;25.30;43.30
39023;DHT22;25908;51.984;5.928;2023-06-14T14:40:59;25.40;43.70
39023;DHT22;25908;51.984;5.928;2023-06-14T14:43:24;25.50;43.80
39023;DHT22;25908;51.984;5.928;2023-06-14T14:45:50;25.50;43.80
39023;DHT22;25908;51.984;5.928;2023-06-14T14:48:16;25.50;44.00
39023;DHT22;25908;51.984;5.928;2023-06-14T14:50:41;25.50;44.10
39023;DHT22;25908;51.984;5.928;2023-06-14T14:53:07;25.50;44.20
39023;DHT22;25908;51.984;5.928;2023-06-14T14:55:32;25.50;44.10
39023;DHT22;25908;51.984;5.928;2023-06-14T14:58:01;25.40;44.00
39023;DHT22;25908;51.984;5.928;2023-06-14T15:00:28;25.40;44.10
39023;DHT22;25908;51.984;5.928;2023-06-14T15:02:54;25.30;44.10
39023;DHT22;25908;51.984;5.928;2023-06-14T15:05:19;25.20;44.30
39023;DHT22;25908;51.984;5.928;2023-06-14T15:07:45;25.10;44.40
39023;DHT22;25908;51.984;5.928;2023-06-14T15:10:11;25.10;44.50
39023;DHT22;25908;51.984;5.928;2023-06-14T15:12:37;25.20;44.50
39023;DHT22;25908;51.984;5.928;2023-06-14T15:15:03;25.10;44.40
39023;DHT22;25908;51.984;5.928;2023-06-14T15:17:29;25.20;44.50
39023;DHT22;25908;51.984;5.928;2023-06-14T15:19:55;25.20;44.70
39023;DHT22;25908;51.984;5.928;2023-06-14T15:22:20;25.20;44.90
39023;DHT22;25908;51.984;5.928;2023-06-14T15:24:46;25.20;45.10
39023;DHT22;25908;51.984;5.928;2023-06-14T15:27:12;25.20;45.20
39023;DHT22;25908;51.984;5.928;2023-06-14T15:29:39;25.10;45.30
39023;DHT22;25908;51.984;5.928;2023-06-14T15:32:05;25.20;45.40
39023;DHT22;25908;51.984;5.928;2023-06-14T15:34:32;25.20;45.30
39023;DHT22;25908;51.984;5.928;2023-06-14T15:36:57;25.20;45.40
39023;DHT22;25908;51.984;5.928;2023-06-14T15:39:23;25.30;45.40